Time;durP1;ratioP1;P1;durP2;ratioP2;P2;SDS_P1;SDS_P2;PMS_P1;PMS_P2;Temp;Humidity;BMP_temperature;BMP_pressure;BME280_temperature;BME280_humidity;BME280_pressure;Samples;Min_cycle;Max_cycle;Signal;HPM_P1;HPM_P2
2023/07/04 04:32:41;;;;;;;12.73;4.17;;;;;;;15.59;78.64;100166.13;5116675;56;97746;-72
2023/07/04 04:37:46;;;;;;;13.20;3.73;;;;;;;15.64;78.55;100170.98;4891238;57;1136959;-71
2023/07/04 04:42:53;;;;;;;12.58;4.12;;;;;;;15.78;78.39;100171.70;4873737;57;1141500;-72
2023/07/04 04:48:01;;;;;;;13.52;4.76;;;;;;;15.91;78.28;100176.09;4913134;56;1141051;-70
2023/07/04 04:53:14;;;;;;;14.68;4.10;;;;;;;16.02;78.14;100177.14;4887381;55;1141091;-71
2023/07/04 04:58:13;;;;;;;12.60;4.67;;;;;;;16.16;77.83;100184.52;4892568;57;1140939;-76
2023/07/04 05:03:19;;;;;;;17.43;4.77;;;;;;;16.31;77.80;100180.72;4910138;56;1140890;-70
2023/07/04 05:08:25;;;;;;;7.43;3.17;;;;;;;16.47;77.14;100174.56;4894071;55;1141013;-70
2023/07/04 05:13:30;;;;;;;8.03;3.53;;;;;;;16.62;75.53;100176.08;4875511;56;1138885;-70
2023/07/04 05:18:38;;;;;;;13.48;4.20;;;;;;;16.75;75.25;100179.11;4832638;58;1148651;-71
2023/07/04 05:23:48;;;;;;;7.53;3.33;;;;;;;16.84;74.99;100167.41;4878857;58;1141035;-73
2023/07/04 05:28:56;;;;;;;11.93;3.83;;;;;;;16.97;73.80;100171.73;4749837;59;1251915;-67
2023/07/04 05:34:02;;;;;;;14.73;4.17;;;;;;;17.07;74.51;100173.75;4778228;58;1141300;-68
2023/07/04 05:39:07;;;;;;;14.18;4.12;;;;;;;17.23;74.04;100172.39;4766828;58;1141001;-75
2023/07/04 05:44:13;;;;;;;10.60;3.85;;;;;;;17.43;73.76;100172.82;4731730;58;1140953;-69
2023/07/04 05:49:19;;;;;;;21.87;4.50;;;;;;;17.61;72.97;100180.63;4669340;59;1140941;-70
2023/07/04 05:54:25;;;;;;;14.87;4.17;;;;;;;17.72;72.12;100173.58;4687129;59;1141024;-71
2023/07/04 05:59:31;;;;;;;21.03;5.27;;;;;;;17.86;72.51;100174.72;4736963;58;1140942;-71
2023/07/04 06:04:37;;;;;;;12.03;4.23;;;;;;;17.98;72.07;100171.98;4668410;59;1140838;-71
2023/07/04 06:09:42;;;;;;;12.60;3.70;;;;;;;18.15;72.42;100166.88;4668742;59;1140948;-72
2023/07/04 06:14:48;;;;;;;12.70;3.77;;;;;;;18.32;71.08;100166.27;4686702;59;1140900;-69
2023/07/04 06:19:54;;;;;;;13.50;3.80;;;;;;;18.51;70.78;100163.59;4668422;59;1141064;-67
2023/07/04 06:24:59;;;;;;;13.03;4.57;;;;;;;18.71;71.47;100158.63;4668844;59;1140827;-75
2023/07/04 06:30:08;;;;;;;19.20;3.50;;;;;;;18.91;71.71;100168.68;4680760;59;1140839;-72
2023/07/04 06:35:13;;;;;;;17.60;3.80;;;;;;;19.16;70.18;100169.77;4778591;59;1141025;-71
2023/07/04 06:40:20;;;;;;;12.34;3.76;;;;;;;19.36;69.73;100165.55;4943145;57;1141003;-69
2023/07/04 06:45:26;;;;;;;13.68;4.53;;;;;;;19.54;68.82;100175.44;4904520;59;1140780;-68
2023/07/04 06:50:31;;;;;;;7.70;3.30;;;;;;;19.70;70.08;100174.92;4865494;59;1140820;-74
2023/07/04 06:55:37;;;;;;;10.20;3.27;;;;;;;19.97;69.58;100180.44;4824349;58;1138955;-71
2023/07/04 07:00:43;;;;;;;9.67;3.20;;;;;;;19.97;69.58;100180.44;4808344;60;1141227;-70
2023/07/04 07:05:49;;;;;;;7.70;3.72;;;;;;;20.11;67.02;100189.48;4821062;60;1139210;-71
2023/07/04 07:11:01;;;;;;;8.98;3.47;;;;;;;20.19;67.63;100191.20;4895162;56;1138845;-68
2023/07/04 07:16:11;;;;;;;8.93;4.03;;;;;;;20.32;66.49;100184.63;4848176;58;1138853;-71
2023/07/04 07:21:24;;;;;;;11.38;4.33;;;;;;;20.48;67.32;100186.28;4921635;58;1138699;-71
2023/07/04 07:26:32;;;;;;;8.18;4.10;;;;;;;20.61;68.67;100186.44;4928359;58;1141037;-71
2023/07/04 07:31:38;;;;;;;11.40;3.77;;;;;;;20.76;67.12;100199.30;4887280;58;1138739;-71
2023/07/04 07:36:45;;;;;;;14.07;4.62;;;;;;;20.83;67.45;100206.89;4862920;58;1140828;-73
2023/07/04 07:41:51;;;;;;;9.78;4.40;;;;;;;21.01;67.05;100195.67;4925774;58;1141289;-76
2023/07/04 07:46:56;;;;;;;8.98;4.17;;;;;;;21.16;66.79;100201.80;4929406;58;1138604;-74
2023/07/04 07:52:02;;;;;;;9.18;4.20;;;;;;;21.34;66.29;100197.30;4919450;57;1139464;-72
2023/07/04 07:57:08;;;;;;;13.13;5.47;;;;;;;21.49;66.35;100192.64;4841484;58;1139131;-72
2023/07/04 08:02:14;;;;;;;11.37;4.50;;;;;;;21.51;61.06;100201.36;4805588;58;1141148;-73
2023/07/04 08:07:20;;;;;;;10.95;5.35;;;;;;;21.56;62.40;100200.23;4786973;60;1140791;-73
2023/07/04 08:12:26;;;;;;;11.53;5.80;;;;;;;21.61;62.45;100202.34;4853295;58;1140947;-75
2023/07/04 08:17:31;;;;;;;8.90;5.22;;;;;;;21.83;64.08;100201.74;4782796;59;1140845;-78
2023/07/04 08:22:37;;;;;;;14.80;6.12;;;;;;;21.91;63.49;100198.86;4858588;58;1138913;-75
2023/07/04 08:27:43;;;;;;;12.40;6.80;;;;;;;22.00;63.48;100198.52;4858980;58;1140919;-75
2023/07/04 08:32:48;;;;;;;13.00;5.30;;;;;;;22.06;63.37;100207.15;4858553;58;1140891;-76
2023/07/04 08:37:54;;;;;;;21.07;6.70;;;;;;;22.13;62.28;100206.36;4872901;58;1140802;-75
2023/07/04 08:43:02;;;;;;;13.15;6.83;;;;;;;22.05;60.42;100213.56;4869226;57;1140834;-76
2023/07/04 08:48:09;;;;;;;12.70;5.45;;;;;;;22.05;60.01;100216.25;4790124;59;1141028;-77
2023/07/04 08:53:23;;;;;;;16.48;6.12;;;;;;;22.12;61.40;100216.81;4711681;60;1141098;-71
2023/07/04 08:58:33;;;;;;;10.85;5.80;;;;;;;22.28;59.86;100215.11;4678426;60;1140954;-78
2023/07/04 09:03:46;;;;;;;14.20;6.17;;;;;;;22.37;60.24;100212.54;4859966;58;1141096;-74
2023/07/04 09:09:14;;;;;;;21.35;5.08;;;;;;;22.49;60.30;100224.89;4909507;59;1140803;-75
2023/07/04 09:14:30;;;;;;;11.40;5.05;;;;;;;22.51;58.40;100235.80;4833892;58;1140847;-78
2023/07/04 09:19:40;;;;;;;10.08;4.90;;;;;;;22.45;58.51;100219.94;4834457;59;1141200;-71
2023/07/04 09:24:48;;;;;;;13.30;5.30;;;;;;;22.53;57.76;100232.38;4746528;60;1141230;-73
2023/07/04 09:29:54;;;;;;;9.08;5.10;;;;;;;22.67;55.90;100242.16;4822039;60;1141105;-70
2023/07/04 09:35:05;;;;;;;6.62;4.33;;;;;;;22.74;55.46;100238.14;4745813;60;1138870;-78
2023/07/04 09:40:12;;;;;;;10.82;5.87;;;;;;;22.99;53.66;100242.45;4698557;58;1138924;-72
2023/07/04 09:45:25;;;;;;;11.90;4.45;;;;;;;23.15;54.49;100247.44;4811127;58;1141143;-75
2023/07/04 09:50:37;;;;;;;11.43;4.85;;;;;;;23.22;51.51;100254.20;4685965;59;1140735;-76
2023/07/04 09:55:43;;;;;;;7.80;4.50;;;;;;;23.33;53.16;100254.39;4821401;58;1140795;-73
2023/07/04 10:01:15;;;;;;;7.33;3.87;;;;;;;23.44;51.83;100259.67;4884185;58;1138926;-75
2023/07/04 10:06:35;;;;;;;7.58;4.20;;;;;;;23.27;52.03;100257.08;5024028;57;1139208;-76
2023/07/04 10:11:40;;;;;;;10.30;4.62;;;;;;;23.29;52.41;100254.49;4919691;58;1138981;-76
2023/07/04 10:16:50;;;;;;;13.03;4.20;;;;;;;23.29;52.41;100254.49;4770813;59;1141074;-73
2023/07/04 10:21:56;;;;;;;7.20;4.22;;;;;;;23.41;49.37;100260.08;4943711;57;1140875;-76
2023/07/04 10:27:06;;;;;;;9.63;3.95;;;;;;;23.44;50.73;100276.70;4852957;59;1138975;-73
2023/07/04 10:32:17;;;;;;;8.53;4.55;;;;;;;23.55;48.85;100263.11;4846199;58;1138673;-76
2023/07/04 10:37:27;;;;;;;8.18;4.25;;;;;;;23.53;48.92;100255.73;4935260;57;1138774;-73
2023/07/04 10:42:41;;;;;;;13.70;4.45;;;;;;;23.49;49.22;100267.98;4818141;59;1138767;-76
2023/07/04 10:47:51;;;;;;;8.70;4.60;;;;;;;23.73;48.26;100263.30;4801782;59;1140789;-74
2023/07/04 10:52:57;;;;;;;10.75;5.12;;;;;;;23.95;48.39;100271.16;4852929;59;1138940;-70
2023/07/04 10:58:12;;;;;;;10.43;4.43;;;;;;;23.95;46.25;100264.40;4855743;59;1141031;-75
2023/07/04 11:03:37;;;;;;;9.18;4.58;;;;;;;23.99;48.10;100279.12;4803582;59;1141075;-76
2023/07/04 11:08:43;;;;;;;17.80;4.00;;;;;;;24.22;46.52;100267.31;5047743;57;1138757;-73
2023/07/04 11:13:52;;;;;;;7.37;4.40;;;;;;;24.43;46.46;100271.11;5076319;57;1141261;-78
2023/07/04 11:19:22;;;;;;;5.85;4.03;;;;;;;24.61;47.24;100273.59;5062477;57;1139187;-76
2023/07/04 11:24:47;;;;;;;6.20;3.50;;;;;;;24.65;46.05;100270.77;5027833;58;1139029;-70
2023/07/04 11:29:56;;;;;;;5.42;4.33;;;;;;;24.63;46.15;100268.28;4921993;58;1139060;-76
2023/07/04 11:35:15;;;;;;;8.75;4.35;;;;;;;24.50;46.60;100281.88;4931287;57;1139163;-74
2023/07/04 11:40:31;;;;;;;8.85;4.25;;;;;;;24.53;46.69;100286.86;4956383;58;1138723;-75
2023/07/04 11:45:42;;;;;;;7.30;4.22;;;;;;;24.41;48.31;100288.06;5040546;57;1158197;-72
2023/07/04 11:50:55;;;;;;;6.78;4.03;;;;;;;24.43;45.44;100282.45;5015892;57;1138774;-72
2023/07/04 11:56:26;;;;;;;4.43;3.70;;;;;;;24.43;46.91;100277.05;4971088;57;1138809;-76
2023/07/04 12:01:43;;;;;;;7.63;4.67;;;;;;;24.56;45.30;100276.97;5073528;57;1139174;-74
2023/07/04 12:07:01;;;;;;;6.12;4.03;;;;;;;24.62;46.13;100282.84;4895235;58;1138939;-68
2023/07/04 12:12:10;;;;;;;13.70;5.83;;;;;;;24.57;45.80;100282.69;4898811;58;1138851;-67
2023/07/04 12:17:17;;;;;;;6.67;4.78;;;;;;;24.75;46.43;100279.27;4980744;57;1140898;-68
2023/07/04 12:22:24;;;;;;;5.80;5.08;;;;;;;24.75;44.49;100281.97;4921347;57;1138965;-67
2023/07/04 12:27:30;;;;;;;7.62;5.05;;;;;;;24.47;47.34;100287.71;4915893;57;1138779;-69
2023/07/04 12:32:38;;;;;;;11.43;7.25;;;;;;;24.50;48.40;100285.41;4953802;58;1138971;-70
2023/07/04 12:37:50;;;;;;;8.58;5.03;;;;;;;24.76;45.06;100279.02;4890167;56;1140709;-70
2023/07/04 12:43:04;;;;;;;10.35;5.37;;;;;;;24.84;44.37;100285.55;4836597;57;1139117;-67
2023/07/04 12:48:09;;;;;;;10.32;5.33;;;;;;;24.87;45.76;100287.82;4825261;58;1140829;-68
2023/07/04 12:53:16;;;;;;;10.40;5.10;;;;;;;24.75;44.86;100290.89;4845224;56;1141311;-69
2023/07/04 12:58:23;;;;;;;7.25;6.20;;;;;;;24.49;45.15;100286.98;4907541;57;1140779;-66
2023/07/04 13:03:29;;;;;;;12.20;6.70;;;;;;;24.38;47.38;100287.66;4832121;58;1138690;-68
2023/07/04 13:08:45;;;;;;;12.73;6.35;;;;;;;24.40;48.89;100297.22;4811483;59;1140827;-70
2023/07/04 13:13:54;;;;;;;10.60;6.33;;;;;;;24.32;45.95;100296.09;4811307;59;1140879;-69
2023/07/04 13:19:13;;;;;;;12.97;7.03;;;;;;;24.20;46.92;100297.77;4810195;58;1141266;-68
2023/07/04 13:24:31;;;;;;;12.55;6.28;;;;;;;24.15;47.52;100297.57;4828905;59;1140700;-67
2023/07/04 13:29:38;;;;;;;10.03;6.97;;;;;;;24.19;46.40;100302.87;4811285;59;1140967;-67
2023/07/04 13:34:44;;;;;;;11.43;6.37;;;;;;;24.40;46.93;100299.09;4801631;59;1141280;-71
2023/07/04 13:39:50;;;;;;;10.90;6.12;;;;;;;24.64;46.98;100296.16;4812971;59;1141210;-70
2023/07/04 13:44:55;;;;;;;15.28;7.47;;;;;;;24.71;45.83;100297.80;4838913;58;1141194;-68
2023/07/04 13:50:05;;;;;;;14.10;8.40;;;;;;;24.75;44.79;100296.30;4829720;59;1140790;-68
2023/07/04 13:55:09;;;;;;;14.75;8.35;;;;;;;24.73;45.95;100309.23;4832117;58;1140813;-69
2023/07/04 14:00:16;;;;;;;10.28;6.33;;;;;;;24.71;45.15;100304.56;4858816;59;1140838;-68
2023/07/04 14:05:21;;;;;;;12.15;6.85;;;;;;;24.98;46.17;100301.72;4863360;59;1140731;-68
2023/07/04 14:10:27;;;;;;;11.35;6.05;;;;;;;25.02;46.47;100303.78;4882772;59;1140810;-68
2023/07/04 14:15:33;;;;;;;9.73;6.65;;;;;;;25.07;47.52;100305.81;4862999;59;1140785;-67
2023/07/04 14:20:39;;;;;;;35.85;13.15;;;;;;;25.17;46.90;100307.00;4861840;59;1139003;-68
2023/07/04 14:25:46;;;;;;;15.23;8.93;;;;;;;25.23;44.75;100306.63;4862053;59;1143004;-67
2023/07/04 14:30:53;;;;;;;12.55;7.78;;;;;;;25.13;44.11;100305.78;4883011;58;1140907;-69
2023/07/04 14:35:59;;;;;;;11.53;8.63;;;;;;;25.09;44.45;100303.72;4912749;58;1141414;-67
2023/07/04 14:41:09;;;;;;;15.00;8.58;;;;;;;25.13;44.41;100304.42;4924245;58;1140948;-69
2023/07/04 14:46:15;;;;;;;9.95;7.75;;;;;;;25.27;43.43;100302.45;4943478;58;1141020;-68
2023/07/04 14:51:21;;;;;;;16.20;7.62;;;;;;;25.37;43.39;100302.77;4870816;58;1138998;-69
2023/07/04 14:56:26;;;;;;;11.60;7.05;;;;;;;25.35;42.81;100300.01;4894939;58;1140939;-69
2023/07/04 15:01:32;;;;;;;12.28;7.33;;;;;;;25.18;42.02;100297.84;4943456;58;1141179;-67
2023/07/04 15:06:38;;;;;;;13.32;7.62;;;;;;;25.02;42.26;100308.36;4922198;58;1250331;-70
2023/07/04 15:11:43;;;;;;;10.63;7.60;;;;;;;25.02;42.75;100304.30;4923881;58;1141240;-67
2023/07/04 15:16:49;;;;;;;16.23;8.47;;;;;;;24.83;42.00;100311.45;4881288;58;1141001;-68
2023/07/04 15:21:55;;;;;;;9.68;6.75;;;;;;;24.82;42.72;100309.27;4943207;57;1140801;-69
2023/07/04 15:27:00;;;;;;;14.07;6.40;;;;;;;24.81;43.68;100303.55;4924119;56;1138703;-70
2023/07/04 15:32:07;;;;;;;11.68;7.58;;;;;;;24.74;43.35;100297.38;4922895;57;1140895;-66
2023/07/04 15:37:15;;;;;;;10.20;8.18;;;;;;;24.73;41.63;100290.83;4964407;57;1141141;-67
2023/07/04 15:42:21;;;;;;;11.18;7.62;;;;;;;24.78;41.54;100289.11;4954652;57;1140933;-68
2023/07/04 15:47:28;;;;;;;12.15;8.08;;;;;;;24.66;42.01;100284.09;4962879;57;1140858;-68
2023/07/04 15:52:34;;;;;;;11.70;7.40;;;;;;;24.49;42.88;100295.09;5055679;57;1141025;-69
2023/07/04 15:57:42;;;;;;;9.20;7.28;;;;;;;24.59;43.40;100288.72;4965211;57;1141045;-68
2023/07/04 16:02:47;;;;;;;12.30;6.77;;;;;;;24.72;41.91;100289.99;4944301;58;1138797;-68
2023/07/04 16:07:53;;;;;;;8.70;7.10;;;;;;;24.77;40.99;100296.08;4963704;58;1141102;-67
2023/07/04 16:12:58;;;;;;;8.87;6.83;;;;;;;24.80;42.69;100285.66;4943911;58;1138547;-70
2023/07/04 16:18:04;;;;;;;9.10;6.42;;;;;;;24.82;43.12;100293.05;4918049;58;1138882;-70
2023/07/04 16:23:10;;;;;;;11.68;6.65;;;;;;;24.83;42.49;100287.94;4973969;58;1138715;-69
2023/07/04 16:28:16;;;;;;;13.58;6.87;;;;;;;24.84;43.01;100301.78;4954199;57;1140713;-67
2023/07/04 16:33:22;;;;;;;8.25;6.47;;;;;;;24.85;43.02;100302.61;4954777;57;1141128;-70
2023/07/04 16:38:28;;;;;;;11.75;6.35;;;;;;;24.89;42.56;100300.61;4974619;57;1139155;-68
2023/07/04 16:43:34;;;;;;;11.63;6.58;;;;;;;24.76;41.13;100305.23;4955010;57;1140921;-68
2023/07/04 16:48:39;;;;;;;12.33;6.40;;;;;;;24.70;42.16;100311.53;4982273;56;1140849;-69
2023/07/04 16:53:45;;;;;;;11.37;7.00;;;;;;;24.62;43.40;100308.55;4996107;57;1140826;-70
2023/07/04 16:58:51;;;;;;;12.65;6.25;;;;;;;24.54;43.02;100311.50;4914764;58;1141010;-68
2023/07/04 17:03:56;;;;;;;6.95;5.22;;;;;;;24.53;43.44;100307.14;4894449;57;1141113;-68
2023/07/04 17:09:03;;;;;;;12.07;5.83;;;;;;;24.45;43.71;100309.55;4896369;58;1139171;-70
2023/07/04 17:14:08;;;;;;;9.25;6.40;;;;;;;24.33;44.67;100311.27;4914195;58;1140999;-68
2023/07/04 17:19:14;;;;;;;15.88;7.65;;;;;;;24.23;45.11;100319.01;4895306;57;1138880;-67
2023/07/04 17:24:19;;;;;;;11.73;5.35;;;;;;;24.15;45.78;100328.13;4895189;57;1140892;-69
2023/07/04 17:29:25;;;;;;;6.55;4.60;;;;;;;24.11;46.35;100336.38;4925421;56;1140901;-68
2023/07/04 17:34:31;;;;;;;7.53;4.62;;;;;;;24.05;46.70;100341.78;4879824;56;1138968;-78
2023/07/04 17:39:37;;;;;;;7.90;5.20;;;;;;;24.02;46.95;100345.72;4895806;57;1138891;-70
2023/07/04 17:44:42;;;;;;;15.45;4.87;;;;;;;23.89;47.22;100347.09;4896234;57;1138919;-71
2023/07/04 17:49:48;;;;;;;6.03;4.30;;;;;;;23.79;47.59;100361.05;4960556;57;1140942;-78
2023/07/04 17:54:53;;;;;;;6.60;4.72;;;;;;;23.62;46.88;100365.20;4981609;56;1138893;-72
2023/07/04 17:59:59;;;;;;;19.02;5.10;;;;;;;23.49;47.66;100366.00;4954905;57;1138653;-72
2023/07/04 18:05:05;;;;;;;11.50;4.15;;;;;;;23.39;47.97;100373.65;4978466;56;1140988;-71
2023/07/04 18:10:11;;;;;;;7.08;4.20;;;;;;;23.25;47.94;100378.72;4975353;55;1141138;-73
2023/07/04 18:15:17;;;;;;;7.03;3.77;;;;;;;23.15;48.35;100376.94;4974585;56;1138833;-73
2023/07/04 18:20:22;;;;;;;9.13;4.33;;;;;;;23.02;48.67;100379.09;4995344;57;1138820;-76
2023/07/04 18:25:28;;;;;;;3.98;3.58;;;;;;;22.93;49.11;100382.16;4976349;57;1138768;-75
2023/07/04 18:30:37;;;;;;;8.03;4.33;;;;;;;22.89;49.13;100395.75;4970543;57;1138877;-76
2023/07/04 18:35:42;;;;;;;7.80;4.50;;;;;;;22.82;49.51;100402.97;4972102;57;1139037;-69
2023/07/04 18:40:50;;;;;;;11.38;4.80;;;;;;;22.80;50.14;100409.40;4994809;57;1138678;-74
2023/07/04 18:45:55;;;;;;;10.90;5.58;;;;;;;22.82;50.83;100405.16;4969290;57;1140770;-73
2023/07/04 18:51:16;;;;;;;9.50;4.47;;;;;;;22.87;51.25;100410.78;4975328;57;1140802;-77
2023/07/04 18:56:22;;;;;;;7.05;4.22;;;;;;;22.94;51.88;100420.23;4982462;57;1138968;-75
2023/07/04 19:01:30;;;;;;;7.65;4.97;;;;;;;22.95;52.11;100422.73;4941401;58;1138723;-74
2023/07/04 19:06:37;;;;;;;10.15;4.53;;;;;;;22.99;52.55;100436.66;4937077;57;1138743;-72
2023/07/04 19:11:44;;;;;;;12.00;5.55;;;;;;;22.93;52.68;100449.59;4943185;57;1140890;-75
2023/07/04 19:16:58;;;;;;;12.07;5.10;;;;;;;22.88;53.83;100454.77;4962162;57;1141437;-72
2023/07/04 19:22:07;;;;;;;10.95;6.50;;;;;;;22.80;54.53;100469.23;4865704;57;1141041;-76
2023/07/04 19:27:14;;;;;;;10.88;6.00;;;;;;;22.73;56.13;100483.19;4865483;58;1140934;-75
2023/07/04 19:32:20;;;;;;;13.90;5.28;;;;;;;22.65;56.70;100484.16;4884517;58;1141024;-76
2023/07/04 19:37:25;;;;;;;14.80;7.35;;;;;;;22.42;56.11;100494.39;4865310;58;1140778;-75
2023/07/04 19:42:31;;;;;;;18.90;9.03;;;;;;;22.37;56.96;100505.75;4895294;56;1140956;-74
2023/07/04 19:47:37;;;;;;;28.87;11.40;;;;;;;22.25;57.21;100517.27;4962963;57;1141222;-78
2023/07/04 19:52:42;;;;;;;56.02;12.35;;;;;;;22.07;58.00;100515.87;4939234;57;1143164;-74
2023/07/04 19:57:48;;;;;;;73.40;12.20;;;;;;;21.90;58.13;100518.47;4949641;57;1143141;-77
2023/07/04 20:02:55;;;;;;;47.20;12.35;;;;;;;21.82;58.65;100529.38;4986393;58;1142987;-73
2023/07/04 20:08:01;;;;;;;43.05;11.50;;;;;;;21.71;59.24;100529.35;4967136;57;1143079;-76
2023/07/04 20:13:06;;;;;;;43.73;11.60;;;;;;;21.67;60.03;100532.13;4959273;57;1143280;-75
2023/07/04 20:18:12;;;;;;;36.17;12.03;;;;;;;21.64;60.88;100539.23;4930149;57;1142974;-76
2023/07/04 20:23:18;;;;;;;47.50;14.10;;;;;;;21.55;61.20;100537.66;4887122;57;1142853;-73
2023/07/04 20:28:25;;;;;;;34.13;11.57;;;;;;;21.47;61.53;100541.83;4918254;57;1143000;-71
2023/07/04 20:33:35;;;;;;;22.45;10.20;;;;;;;21.40;61.63;100551.15;4953328;57;1143031;-72
2023/07/04 20:38:41;;;;;;;19.27;9.58;;;;;;;21.29;61.34;100552.98;4910042;57;1143332;-74
2023/07/04 20:43:47;;;;;;;23.93;10.37;;;;;;;21.15;61.14;100551.12;4956263;57;1140778;-75
2023/07/04 20:48:52;;;;;;;15.72;8.30;;;;;;;20.97;61.38;100558.72;4986316;57;1143096;-75
2023/07/04 20:53:58;;;;;;;19.73;9.18;;;;;;;20.89;62.02;100558.31;4967792;57;1141078;-76
2023/07/04 20:59:04;;;;;;;17.90;8.30;;;;;;;20.81;62.55;100563.77;5008423;55;1141175;-71
2023/07/04 21:04:09;;;;;;;17.35;8.65;;;;;;;20.68;62.99;100563.57;4981804;56;1141136;-72
2023/07/04 21:09:24;;;;;;;14.63;8.55;;;;;;;20.58;63.23;100571.91;4965852;56;1141094;-71
2023/07/04 21:14:28;;;;;;;12.00;7.97;;;;;;;20.51;63.67;100574.98;4926998;56;1140730;-73
2023/07/04 21:19:34;;;;;;;17.60;8.20;;;;;;;20.44;64.21;100571.88;4915681;57;1140970;-72
2023/07/04 21:24:40;;;;;;;17.15;8.53;;;;;;;20.35;64.70;100575.09;4896458;57;1141082;-71
2023/07/04 21:29:51;;;;;;;10.17;7.27;;;;;;;20.25;65.31;100579.37;4896366;57;1140802;-68
2023/07/04 21:34:56;;;;;;;14.95;8.50;;;;;;;20.09;65.73;100585.38;4915867;57;1141125;-69
2023/07/04 21:40:05;;;;;;;20.90;8.10;;;;;;;19.71;66.09;100577.75;4964170;57;1140777;-73
2023/07/04 21:45:09;;;;;;;18.98;7.87;;;;;;;19.40;67.18;100578.52;4975273;58;1141094;-73
2023/07/04 21:50:15;;;;;;;12.25;7.72;;;;;;;19.36;68.45;100587.95;4997422;56;1140952;-74
2023/07/04 21:55:21;;;;;;;17.48;8.08;;;;;;;19.39;69.31;100586.27;5057468;55;1140956;-74
2023/07/04 22:00:26;;;;;;;23.32;8.83;;;;;;;19.42;69.64;100591.77;5057989;55;1140792;-73
2023/07/04 22:05:32;;;;;;;28.27;8.85;;;;;;;19.42;69.58;100597.96;5018552;56;1140920;-75
2023/07/04 22:10:38;;;;;;;26.23;8.60;;;;;;;19.38;69.63;100599.84;4976058;55;1140792;-72
2023/07/04 22:15:43;;;;;;;13.70;8.35;;;;;;;19.32;69.70;100606.23;4976112;58;1140972;-76
2023/07/04 22:20:49;;;;;;;26.27;10.10;;;;;;;19.24;70.06;100604.93;4976172;58;1140799;-73
2023/07/04 22:25:57;;;;;;;14.23;8.70;;;;;;;19.18;70.51;100621.70;4995422;58;1142972;-72
2023/07/04 22:31:06;;;;;;;17.20;8.40;;;;;;;19.12;70.62;100626.89;4975816;58;1140802;-72
2023/07/04 22:36:12;;;;;;;14.70;7.23;;;;;;;19.00;70.89;100633.13;4976124;57;1141046;-75
2023/07/04 22:41:17;;;;;;;15.65;8.93;;;;;;;18.90;71.37;100633.83;4995497;57;1140871;-71
2023/07/04 22:46:25;;;;;;;15.48;8.13;;;;;;;18.79;71.57;100632.31;4976469;56;1140972;-77
2023/07/04 22:51:30;;;;;;;12.13;6.53;;;;;;;18.69;71.77;100637.52;4982182;56;1141182;-76
2023/07/04 22:56:36;;;;;;;11.55;7.10;;;;;;;18.51;71.76;100634.98;4995411;56;1140832;-73
2023/07/04 23:01:42;;;;;;;10.08;7.17;;;;;;;18.29;71.84;100637.83;4974105;57;1240183;-74
2023/07/04 23:06:47;;;;;;;25.62;9.43;;;;;;;18.24;73.31;100634.30;4968727;57;1140909;-77
2023/07/04 23:11:53;;;;;;;16.23;9.67;;;;;;;18.22;73.80;100635.47;4967166;57;1141084;-71
2023/07/04 23:16:59;;;;;;;12.88;7.95;;;;;;;18.16;73.88;100638.33;4986632;58;1141014;-73
2023/07/04 23:22:04;;;;;;;19.12;9.65;;;;;;;18.15;73.62;100642.50;4920427;57;1140851;-73
2023/07/04 23:27:10;;;;;;;20.20;11.10;;;;;;;18.15;74.32;100643.84;4888064;58;1141085;-77
2023/07/04 23:32:15;;;;;;;24.32;12.00;;;;;;;18.13;74.52;100641.83;4907046;58;1142821;-74
2023/07/04 23:37:22;;;;;;;20.45;10.78;;;;;;;18.05;74.71;100648.48;4913078;57;1143033;-73
2023/07/04 23:42:28;;;;;;;21.52;9.93;;;;;;;17.93;74.70;100650.64;4966717;57;1142891;-73
2023/07/04 23:47:33;;;;;;;15.63;8.70;;;;;;;17.77;75.21;100643.90;4985941;57;1140806;-74
2023/07/04 23:52:39;;;;;;;15.55;8.98;;;;;;;17.69;75.95;100644.72;4965793;57;1140887;-71
2023/07/04 23:57:45;;;;;;;12.90;8.70;;;;;;;17.64;76.36;100650.20;4967287;57;1140941;-74
